Navy Sup Dpt, Pennsylvania
Current Conditions -  °F | °C
As of 11:56 PM on Sunday 19 Oct 2014 (Local Time) from KCXY Reporting Station
Clear Clear  
Wind Chill: 42°   Ceiling: Unl
Heat Index: 44°   Visibility: 10mi
Dew Point: 34°   Wind: 5mph
Humidity: 68%   Direction: 260°W
Pressure: 30.08"   Gusts: NA
Location:  40.208°N, 77.0098°W
Report Text: KCXY 200356Z AUTO 26004KT 10SM CLR 07/01 A3008 RMK AO2 SLP189 T00670011
Loading
Personal Weather Stations






























Interactive Weather Map
Tropical Storm Tracking
New forecast layout! Learn more

10-Day Weather Forecast

Advertisements
Track Severe Weather on mobile